Time;durP1;ratioP1;P1;durP2;ratioP2;P2;SDS_P1;SDS_P2;PMS_P1;PMS_P2;Temp;Humidity;BMP_temperature;BMP_pressure;BME280_temperature;BME280_humidity;BME280_pressure;Samples;Min_cycle;Max_cycle;Signal;HPM_P1;HPM_P2
2023/12/27 00:00:28;;;;;;;0.20;0.20;;;2.80;99.90;;;;;;5063134;28;20430;-77
2023/12/27 00:02:57;;;;;;;0.17;0.17;;;2.90;99.90;;;;;;5063862;28;20627;-78
2023/12/27 00:05:24;;;;;;;0.30;0.30;;;2.90;99.90;;;;;;5062413;28;20096;-79
2023/12/27 00:07:49;;;;;;;0.20;0.20;;;2.80;99.90;;;;;;5074870;28;20033;-79
2023/12/27 00:10:15;;;;;;;0.55;0.55;;;2.90;99.90;;;;;;5061743;28;20045;-79
2023/12/27 00:12:40;;;;;;;0.35;0.35;;;2.80;99.90;;;;;;5065137;28;20045;-80
2023/12/27 00:15:06;;;;;;;0.43;0.43;;;2.80;99.90;;;;;;5064325;28;20047;-78
2023/12/27 00:17:32;;;;;;;0.10;0.10;;;2.80;99.90;;;;;;5066782;28;20438;-79
2023/12/27 00:19:58;;;;;;;0.52;0.40;;;2.80;99.90;;;;;;5063968;28;20025;-79
2023/12/27 00:22:23;;;;;;;0.15;0.15;;;2.80;99.90;;;;;;5063120;28;20647;-79
2023/12/27 00:24:49;;;;;;;0.60;0.60;;;2.80;99.90;;;;;;5082681;28;20037;-79
2023/12/27 00:27:15;;;;;;;0.10;0.10;;;2.80;99.90;;;;;;5067445;28;20398;-78
2023/12/27 00:29:40;;;;;;;0.10;0.10;;;2.80;99.90;;;;;;5065554;28;20040;-79
2023/12/27 00:32:11;;;;;;;0.10;0.10;;;2.80;99.90;;;;;;5069677;28;20032;-78
2023/12/27 00:34:36;;;;;;;0.10;0.10;;;2.80;99.90;;;;;;5062564;28;20111;-78
2023/12/27 00:37:02;;;;;;;0.20;0.20;;;2.80;99.90;;;;;;5091617;28;20033;-78
2023/12/27 00:39:29;;;;;;;0.10;0.10;;;2.70;99.90;;;;;;5063381;28;20059;-77
2023/12/27 00:41:54;;;;;;;0.10;0.10;;;2.60;99.90;;;;;;5065746;28;20078;-78
2023/12/27 00:44:20;;;;;;;0.10;0.10;;;2.60;99.90;;;;;;5060928;28;20036;-78
2023/12/27 00:46:45;;;;;;;0.40;0.40;;;2.40;99.90;;;;;;5065443;28;20044;-77
2023/12/27 00:49:12;;;;;;;0.15;0.15;;;2.40;99.90;;;;;;5043826;28;20135;-78
2023/12/27 00:51:37;;;;;;;0.10;0.10;;;2.30;99.90;;;;;;5065066;28;20055;-78
2023/12/27 00:54:03;;;;;;;2.03;1.30;;;2.20;99.90;;;;;;5062533;28;20349;-78
2023/12/27 00:56:29;;;;;;;0.10;0.10;;;2.20;99.90;;;;;;5066592;28;20498;-78
2023/12/27 00:58:54;;;;;;;0.50;0.50;;;2.10;99.90;;;;;;5064815;28;20282;-78
2023/12/27 01:01:20;;;;;;;4.88;0.63;;;2.10;99.90;;;;;;5063765;28;20029;-78
2023/12/27 01:03:45;;;;;;;0.38;0.30;;;2.10;99.90;;;;;;5061541;28;20067;-78
2023/12/27 01:06:11;;;;;;;0.50;0.50;;;2.10;99.90;;;;;;5066551;28;20047;-77
2023/12/27 01:08:37;;;;;;;2.63;1.13;;;2.10;99.90;;;;;;5062952;28;20048;-77
2023/12/27 01:11:03;;;;;;;0.32;0.32;;;2.10;99.90;;;;;;5062887;28;20110;-78
2023/12/27 01:13:29;;;;;;;0.20;0.20;;;2.10;99.90;;;;;;5063481;28;20472;-77
2023/12/27 01:15:55;;;;;;;0.63;0.63;;;2.00;99.90;;;;;;5065175;28;20040;-78
2023/12/27 01:18:20;;;;;;;0.10;0.10;;;2.00;99.90;;;;;;5063600;28;20024;-78
2023/12/27 01:20:46;;;;;;;0.13;0.10;;;2.00;99.90;;;;;;5064855;28;20548;-77
2023/12/27 01:23:12;;;;;;;0.10;0.10;;;1.90;99.90;;;;;;5068123;28;20064;-77
2023/12/27 01:25:38;;;;;;;0.85;0.20;;;2.00;99.90;;;;;;5063747;28;20119;-77
2023/12/27 01:28:03;;;;;;;0.30;0.30;;;2.00;99.90;;;;;;5064878;28;20123;-77
2023/12/27 01:30:30;;;;;;;0.10;0.10;;;1.90;99.90;;;;;;5066780;28;20387;-77
2023/12/27 01:32:55;;;;;;;0.10;0.10;;;2.00;99.90;;;;;;5065602;28;20048;-77
2023/12/27 01:35:21;;;;;;;0.10;0.10;;;2.00;99.90;;;;;;5063028;28;20025;-77
2023/12/27 01:37:46;;;;;;;0.17;0.17;;;2.10;99.90;;;;;;5064716;28;20123;-76
2023/12/27 01:40:12;;;;;;;0.20;0.20;;;2.00;99.90;;;;;;5070122;28;20029;-76
2023/12/27 01:42:39;;;;;;;0.85;0.15;;;2.00;99.90;;;;;;5072626;28;20035;-76
2023/12/27 01:45:05;;;;;;;0.30;0.30;;;1.90;99.90;;;;;;5067699;28;20171;-76
2023/12/27 01:47:33;;;;;;;0.10;0.10;;;1.80;99.90;;;;;;5072743;28;20122;-76
2023/12/27 01:49:58;;;;;;;0.10;0.10;;;1.70;99.90;;;;;;5063702;28;20040;-77
2023/12/27 01:52:25;;;;;;;0.20;0.20;;;1.60;99.90;;;;;;5069787;28;20405;-76
2023/12/27 01:54:50;;;;;;;0.10;0.10;;;1.60;99.90;;;;;;5063393;28;20076;-76
2023/12/27 01:57:17;;;;;;;0.10;0.10;;;1.50;99.90;;;;;;5072122;28;20552;-76
2023/12/27 01:59:42;;;;;;;0.10;0.10;;;1.50;99.90;;;;;;5067194;28;20480;-76
2023/12/27 02:02:08;;;;;;;0.20;0.20;;;1.50;99.90;;;;;;5076437;28;20037;-76
2023/12/27 02:04:33;;;;;;;0.10;0.10;;;1.50;99.90;;;;;;5069895;28;20368;-76
2023/12/27 02:06:59;;;;;;;0.10;0.10;;;1.50;99.90;;;;;;5071487;28;20117;-76
2023/12/27 02:09:25;;;;;;;0.10;0.10;;;1.50;99.90;;;;;;5055760;28;20486;-75
2023/12/27 02:11:51;;;;;;;0.10;0.10;;;1.50;99.90;;;;;;5072380;28;20049;-76
2023/12/27 02:14:16;;;;;;;0.10;0.10;;;1.50;99.90;;;;;;5071931;28;20045;-75
2023/12/27 02:16:42;;;;;;;0.10;0.10;;;1.50;99.90;;;;;;5074171;28;20141;-75
2023/12/27 02:19:54;;;;;;;1.15;0.30;;;1.50;99.90;;;;;;5058070;28;20032;-75
2023/12/27 02:22:20;;;;;;;0.10;0.10;;;1.60;99.90;;;;;;5073177;28;20460;-75
2023/12/27 02:24:55;;;;;;;0.20;0.20;;;1.60;99.90;;;;;;5075796;28;20048;-75
2023/12/27 02:27:21;;;;;;;0.10;0.10;;;1.50;99.90;;;;;;5059245;28;20128;-75
2023/12/27 02:29:46;;;;;;;0.10;0.10;;;1.50;99.90;;;;;;5076434;28;20036;-75
2023/12/27 02:32:12;;;;;;;0.30;0.30;;;1.40;99.90;;;;;;5059165;28;20047;-76
2023/12/27 02:34:38;;;;;;;0.38;0.38;;;1.40;99.90;;;;;;5076389;28;20072;-75
2023/12/27 02:37:03;;;;;;;0.35;0.35;;;1.50;99.90;;;;;;5076965;28;20060;-75
2023/12/27 02:39:29;;;;;;;0.10;0.10;;;1.40;99.90;;;;;;5077683;28;20036;-76
2023/12/27 02:41:54;;;;;;;0.25;0.25;;;1.50;99.90;;;;;;5077983;28;20131;-75
2023/12/27 02:44:20;;;;;;;0.20;0.20;;;1.50;99.90;;;;;;5059612;28;20051;-75
2023/12/27 02:46:46;;;;;;;0.20;0.20;;;1.50;99.90;;;;;;5076586;28;20119;-75
2023/12/27 02:49:11;;;;;;;0.20;0.20;;;1.60;99.90;;;;;;5076936;28;20128;-75
2023/12/27 02:51:37;;;;;;;0.77;0.45;;;1.50;99.90;;;;;;5076048;28;20072;-75
2023/12/27 02:54:02;;;;;;;0.35;0.30;;;1.60;99.90;;;;;;5077019;28;20063;-75
2023/12/27 02:56:28;;;;;;;0.10;0.10;;;1.60;99.90;;;;;;5074832;28;20102;-75
2023/12/27 02:58:53;;;;;;;0.63;0.63;;;1.60;99.90;;;;;;5086976;28;20076;-75
2023/12/27 03:01:19;;;;;;;0.10;0.10;;;1.70;99.90;;;;;;5099049;28;20044;-75
2023/12/27 03:03:44;;;;;;;0.10;0.10;;;1.60;99.90;;;;;;5100161;28;20502;-75
2023/12/27 03:06:10;;;;;;;0.30;0.30;;;1.60;99.90;;;;;;5099467;28;20032;-75
2023/12/27 03:08:37;;;;;;;0.47;0.47;;;1.60;99.90;;;;;;5100783;28;20068;-74
2023/12/27 03:11:02;;;;;;;0.10;0.10;;;1.60;99.90;;;;;;5099156;28;20173;-75
2023/12/27 03:13:28;;;;;;;0.10;0.10;;;1.50;99.90;;;;;;5086342;28;20074;-75
2023/12/27 03:15:54;;;;;;;0.10;0.10;;;1.60;99.90;;;;;;5078900;28;20041;-74
2023/12/27 03:18:19;;;;;;;0.25;0.25;;;1.50;99.90;;;;;;5079171;28;20039;-75
2023/12/27 03:20:45;;;;;;;0.20;0.20;;;1.50;99.90;;;;;;5080070;28;20044;-75
2023/12/27 03:23:10;;;;;;;1.70;0.85;;;1.50;99.90;;;;;;5078904;28;20040;-74
2023/12/27 03:25:36;;;;;;;0.20;0.20;;;1.40;99.90;;;;;;5080231;28;20161;-75
2023/12/27 03:28:01;;;;;;;0.20;0.20;;;1.40;99.90;;;;;;5080623;28;20085;-75
2023/12/27 03:30:27;;;;;;;0.00;0.00;;;1.40;99.90;;;;;;5078868;28;20036;-75
2023/12/27 03:32:52;;;;;;;0.40;0.40;;;1.40;99.90;;;;;;5077989;28;20047;-74
2023/12/27 03:35:18;;;;;;;0.35;0.30;;;1.40;99.90;;;;;;5077818;28;20037;-74
2023/12/27 03:37:45;;;;;;;0.20;0.20;;;1.40;99.90;;;;;;5078747;28;20036;-75
2023/12/27 03:40:11;;;;;;;0.30;0.30;;;1.40;99.90;;;;;;5077544;28;20487;-74
2023/12/27 03:42:36;;;;;;;0.35;0.28;;;1.40;99.90;;;;;;5060878;28;20047;-74
2023/12/27 03:45:02;;;;;;;0.38;0.38;;;1.40;99.90;;;;;;5077309;28;20033;-74
2023/12/27 03:47:27;;;;;;;0.63;0.38;;;1.40;99.90;;;;;;5078072;28;20051;-74
2023/12/27 03:49:53;;;;;;;0.40;0.40;;;1.40;99.90;;;;;;5062001;28;20036;-75
2023/12/27 03:52:19;;;;;;;0.10;0.10;;;1.40;99.90;;;;;;5079111;28;20040;-74
2023/12/27 03:54:45;;;;;;;0.10;0.10;;;1.40;99.90;;;;;;5078626;28;20041;-74
2023/12/27 03:57:11;;;;;;;0.10;0.10;;;1.30;99.90;;;;;;5060424;28;20071;-74
2023/12/27 03:59:40;;;;;;;0.30;0.30;;;1.40;99.90;;;;;;5076897;28;20032;-74
2023/12/27 04:02:06;;;;;;;0.30;0.30;;;1.40;99.90;;;;;;5075585;28;20068;-74
2023/12/27 04:04:33;;;;;;;0.10;0.10;;;1.50;99.90;;;;;;5075750;28;20471;-73
2023/12/27 04:06:59;;;;;;;0.40;0.40;;;1.50;99.90;;;;;;5058281;28;20051;-73
2023/12/27 04:09:24;;;;;;;1.70;0.43;;;1.50;99.90;;;;;;5074966;28;20223;-74
2023/12/27 04:11:50;;;;;;;0.10;0.10;;;1.60;99.90;;;;;;5076172;28;20479;-73
2023/12/27 04:14:17;;;;;;;0.20;0.20;;;1.60;99.90;;;;;;5076212;28;20040;-73
2023/12/27 04:16:43;;;;;;;0.28;0.20;;;1.60;99.90;;;;;;5074368;28;20395;-73
2023/12/27 04:19:09;;;;;;;1.02;0.47;;;1.70;99.90;;;;;;5075276;28;20089;-73
2023/12/27 04:21:34;;;;;;;0.10;0.10;;;1.70;99.90;;;;;;5074678;28;20190;-73
2023/12/27 04:24:00;;;;;;;0.10;0.10;;;1.70;99.90;;;;;;5076080;28;20074;-73
2023/12/27 04:26:25;;;;;;;0.10;0.10;;;1.80;99.90;;;;;;5074279;28;20036;-73
2023/12/27 04:28:51;;;;;;;0.10;0.10;;;1.80;99.90;;;;;;5074510;28;20068;-73
2023/12/27 04:31:16;;;;;;;0.03;0.03;;;1.80;99.90;;;;;;5075041;28;20505;-73
2023/12/27 04:33:42;;;;;;;0.10;0.10;;;1.80;99.90;;;;;;5074213;28;20041;-73
2023/12/27 04:36:07;;;;;;;0.13;0.13;;;1.80;99.90;;;;;;5073497;28;20068;-74
2023/12/27 04:38:33;;;;;;;0.10;0.10;;;1.80;99.90;;;;;;5075799;28;20041;-74
2023/12/27 04:40:58;;;;;;;1.75;1.65;;;1.80;99.90;;;;;;5073648;28;20487;-74
2023/12/27 04:43:24;;;;;;;1.15;0.73;;;1.80;99.90;;;;;;5073663;28;20056;-74
2023/12/27 04:45:50;;;;;;;0.10;0.10;;;1.70;99.90;;;;;;5074432;28;20403;-74
2023/12/27 04:48:15;;;;;;;0.50;0.50;;;1.80;99.90;;;;;;5058067;28;20041;-75
2023/12/27 04:50:41;;;;;;;0.15;0.15;;;1.80;99.90;;;;;;5075510;28;20064;-74
2023/12/27 04:53:07;;;;;;;0.10;0.10;;;1.80;99.90;;;;;;5074969;28;20041;-74
2023/12/27 04:55:32;;;;;;;0.60;0.25;;;1.70;99.90;;;;;;5075219;28;20045;-74
2023/12/27 04:57:58;;;;;;;0.10;0.10;;;1.80;99.90;;;;;;5073818;28;20115;-74
2023/12/27 05:00:24;;;;;;;0.50;0.20;;;1.80;99.90;;;;;;5075555;28;20028;-74
2023/12/27 05:02:49;;;;;;;0.40;0.30;;;1.70;99.90;;;;;;5075832;28;20036;-74
2023/12/27 05:05:15;;;;;;;0.20;0.20;;;1.80;99.90;;;;;;5057270;28;20105;-74
2023/12/27 05:07:41;;;;;;;0.10;0.10;;;1.80;99.90;;;;;;5073781;28;20039;-74
2023/12/27 05:10:07;;;;;;;0.30;0.30;;;1.80;99.90;;;;;;5074439;28;20398;-74
2023/12/27 05:12:32;;;;;;;0.45;0.20;;;1.80;99.90;;;;;;5074932;28;20036;-75
2023/12/27 05:14:58;;;;;;;0.30;0.30;;;1.80;99.90;;;;;;5074932;28;20459;-74
2023/12/27 05:17:23;;;;;;;0.22;0.22;;;1.80;99.90;;;;;;5076649;28;20471;-74
2023/12/27 05:19:49;;;;;;;0.65;0.63;;;1.90;99.90;;;;;;5073776;28;20043;-74
2023/12/27 05:22:16;;;;;;;1.30;0.65;;;1.80;99.90;;;;;;5074475;28;20036;-75
2023/12/27 05:24:42;;;;;;;0.30;0.30;;;1.90;99.90;;;;;;5062510;28;20085;-74
2023/12/27 05:27:07;;;;;;;0.32;0.30;;;1.90;99.90;;;;;;5078557;28;20079;-74
2023/12/27 05:29:34;;;;;;;0.20;0.20;;;1.90;99.90;;;;;;5076684;28;20040;-75
2023/12/27 05:32:00;;;;;;;0.20;0.20;;;1.90;99.90;;;;;;5077108;28;20058;-74
2023/12/27 05:34:27;;;;;;;0.10;0.10;;;2.00;99.90;;;;;;5058527;28;20040;-75
2023/12/27 05:36:52;;;;;;;0.20;0.20;;;2.00;99.90;;;;;;5074286;28;20079;-74
2023/12/27 05:39:18;;;;;;;0.20;0.20;;;2.00;99.90;;;;;;5074136;28;20036;-74
2023/12/27 05:41:44;;;;;;;0.10;0.10;;;2.00;99.90;;;;;;5075180;28;20044;-74
2023/12/27 05:47:51;;;;;;;0.35;0.32;;;2.10;99.90;;;;;;5075267;28;20039;-74
2023/12/27 05:50:17;;;;;;;0.10;0.10;;;2.10;99.90;;;;;;5073539;28;20043;-73
2023/12/27 05:52:43;;;;;;;0.15;0.15;;;2.10;99.90;;;;;;5072849;28;20483;-73
2023/12/27 05:55:08;;;;;;;0.30;0.30;;;2.10;99.90;;;;;;5073056;28;20029;-74
2023/12/27 05:57:34;;;;;;;0.10;0.10;;;2.20;99.90;;;;;;5074888;28;20590;-74
2023/12/27 06:00:00;;;;;;;0.50;0.50;;;2.20;99.90;;;;;;5075408;28;20123;-74
2023/12/27 06:06:06;;;;;;;0.30;0.25;;;2.30;99.90;;;;;;5075946;28;20078;-74
2023/12/27 06:08:32;;;;;;;0.20;0.20;;;2.30;99.90;;;;;;5074820;28;20468;-74
2023/12/27 06:10:57;;;;;;;0.20;0.20;;;2.20;99.90;;;;;;5075964;28;20399;-73
2023/12/27 06:13:23;;;;;;;0.35;0.32;;;2.30;99.90;;;;;;5076787;28;20048;-74
2023/12/27 06:15:48;;;;;;;0.10;0.10;;;2.30;99.90;;;;;;5075476;28;20040;-74
2023/12/27 06:18:14;;;;;;;0.10;0.10;;;2.30;99.90;;;;;;5076211;28;20554;-74
2023/12/27 06:24:20;;;;;;;0.32;0.32;;;2.40;99.90;;;;;;5078418;28;20035;-74
2023/12/27 06:26:46;;;;;;;0.20;0.20;;;2.40;99.90;;;;;;5074469;28;20036;-75
2023/12/27 06:29:11;;;;;;;0.13;0.13;;;2.40;99.90;;;;;;5070322;28;20483;-74
2023/12/27 06:31:37;;;;;;;0.22;0.22;;;2.50;99.90;;;;;;5056786;28;20033;-75
2023/12/27 06:34:03;;;;;;;0.35;0.25;;;2.50;99.90;;;;;;5076875;28;20106;-74
2023/12/27 06:36:28;;;;;;;0.35;0.30;;;2.60;99.90;;;;;;5080556;28;20032;-74
2023/12/27 06:38:54;;;;;;;0.10;0.10;;;2.60;99.90;;;;;;5078886;28;20040;-75
2023/12/27 06:41:19;;;;;;;0.10;0.10;;;2.60;99.90;;;;;;5080529;28;20457;-75
2023/12/27 06:43:45;;;;;;;0.20;0.20;;;2.60;99.90;;;;;;5079958;28;20399;-75
2023/12/27 06:46:11;;;;;;;0.47;0.47;;;2.70;99.90;;;;;;5080284;28;20083;-75
2023/12/27 06:48:36;;;;;;;0.63;0.63;;;2.80;99.90;;;;;;5080560;28;20047;-74
2023/12/27 06:51:05;;;;;;;0.28;0.28;;;2.80;99.90;;;;;;5082916;28;20060;-74
2023/12/27 06:53:30;;;;;;;0.10;0.10;;;2.80;99.90;;;;;;5080566;28;20575;-74
2023/12/27 06:55:56;;;;;;;0.00;0.00;;;2.90;99.90;;;;;;5078095;28;20121;-75
2023/12/27 06:58:21;;;;;;;0.20;0.20;;;3.00;99.90;;;;;;5078990;28;20361;-75
2023/12/27 07:04:09;;;;;;;0.10;0.10;;;3.10;99.90;;;;;;5077917;28;20037;-74
2023/12/27 07:06:35;;;;;;;0.68;0.68;;;3.10;99.90;;;;;;5078122;28;20033;-76
2023/12/27 07:09:02;;;;;;;0.10;0.10;;;3.20;99.90;;;;;;5079193;28;20037;-74
2023/12/27 07:11:38;;;;;;;0.10;0.10;;;3.30;99.90;;;;;;5080169;28;20037;-75
2023/12/27 07:14:04;;;;;;;0.30;0.30;;;3.30;99.90;;;;;;5079827;28;20062;-77
2023/12/27 07:16:29;;;;;;;0.10;0.10;;;3.40;99.90;;;;;;5061202;28;20141;-76
2023/12/27 07:18:55;;;;;;;0.80;0.43;;;3.40;99.90;;;;;;5075883;28;20044;-76
2023/12/27 07:21:32;;;;;;;0.17;0.17;;;3.40;99.90;;;;;;5079159;28;20032;-76
2023/12/27 07:23:58;;;;;;;0.85;0.55;;;3.40;99.90;;;;;;5078109;28;20047;-76
2023/12/27 07:26:24;;;;;;;0.10;0.10;;;3.50;99.90;;;;;;5061168;28;20044;-75
2023/12/27 07:28:49;;;;;;;0.10;0.10;;;3.50;99.90;;;;;;5077773;28;20372;-76
2023/12/27 07:31:34;;;;;;;0.10;0.10;;;3.60;99.90;;;;;;5065283;28;20380;-75
2023/12/27 07:33:59;;;;;;;0.65;0.55;;;3.60;99.90;;;;;;5039800;28;20036;-75
2023/12/27 07:36:25;;;;;;;0.35;0.35;;;3.70;99.90;;;;;;5077101;28;20059;-75
2023/12/27 07:38:50;;;;;;;0.77;0.43;;;3.70;99.90;;;;;;5061908;28;20536;-75
2023/12/27 07:41:16;;;;;;;0.10;0.10;;;3.80;99.90;;;;;;5080146;28;20040;-74
2023/12/27 07:43:41;;;;;;;0.25;0.25;;;3.80;99.90;;;;;;5078158;28;20062;-75
2023/12/27 07:46:10;;;;;;;0.10;0.10;;;3.80;99.90;;;;;;5079290;28;20036;-75
2023/12/27 07:48:36;;;;;;;0.28;0.15;;;3.80;99.90;;;;;;5083216;28;20044;-75
2023/12/27 07:51:03;;;;;;;0.10;0.10;;;3.90;99.90;;;;;;5069106;28;20052;-75
2023/12/27 07:53:37;;;;;;;0.00;0.00;;;3.80;99.90;;;;;;5092464;28;20403;-76
2023/12/27 07:56:08;;;;;;;0.28;0.25;;;3.90;99.90;;;;;;5060179;28;20096;-76
2023/12/27 07:58:34;;;;;;;0.10;0.10;;;3.90;99.90;;;;;;5065467;28;20032;-76
2023/12/27 08:04:40;;;;;;;0.10;0.10;;;3.90;99.90;;;;;;5071708;28;20039;-74
2023/12/27 08:07:11;;;;;;;0.10;0.10;;;4.00;99.90;;;;;;5091147;28;20040;-76
2023/12/27 08:09:37;;;;;;;0.10;0.10;;;4.00;99.90;;;;;;5080636;28;20043;-76
2023/12/27 08:12:02;;;;;;;0.00;0.00;;;4.10;99.90;;;;;;5075907;28;20041;-76
2023/12/27 08:14:29;;;;;;;4.47;0.63;;;4.10;99.90;;;;;;5059632;28;20127;-76
2023/12/27 08:16:55;;;;;;;0.65;0.50;;;4.10;99.90;;;;;;5060437;28;20041;-76
2023/12/27 08:19:20;;;;;;;0.45;0.10;;;4.10;99.90;;;;;;5104801;28;20071;-76
2023/12/27 08:21:47;;;;;;;0.10;0.10;;;4.10;99.90;;;;;;5059981;28;20064;-76
2023/12/27 08:24:13;;;;;;;0.65;0.40;;;4.20;99.90;;;;;;5104928;27;20037;-76
2023/12/27 08:26:39;;;;;;;0.40;0.40;;;4.30;99.90;;;;;;5073567;28;20055;-77
2023/12/27 08:29:04;;;;;;;0.10;0.10;;;4.20;99.90;;;;;;5085589;28;20479;-76
2023/12/27 08:31:30;;;;;;;0.20;0.20;;;4.20;99.90;;;;;;5058902;28;20507;-77
2023/12/27 08:33:58;;;;;;;0.50;0.25;;;4.30;99.90;;;;;;5061508;28;20483;-77
2023/12/27 08:36:25;;;;;;;0.65;0.65;;;4.30;99.90;;;;;;5050441;28;20028;-78
2023/12/27 08:38:51;;;;;;;0.30;0.28;;;4.40;99.90;;;;;;5063034;28;20421;-77
2023/12/27 08:41:16;;;;;;;0.30;0.30;;;4.30;99.90;;;;;;5068946;28;20040;-77
2023/12/27 08:43:42;;;;;;;0.35;0.35;;;4.40;99.90;;;;;;5050904;28;20036;-78
2023/12/27 08:46:11;;;;;;;0.50;0.45;;;4.40;99.90;;;;;;5075603;28;20189;-76
2023/12/27 08:48:37;;;;;;;0.10;0.10;;;4.40;99.90;;;;;;5055176;28;20383;-76
2023/12/27 08:51:03;;;;;;;2.17;0.85;;;4.50;99.90;;;;;;5051135;28;20090;-76
2023/12/27 08:53:29;;;;;;;1.92;0.50;;;4.60;99.90;;;;;;5062851;28;20482;-77
2023/12/27 08:55:55;;;;;;;1.40;1.15;;;4.50;99.90;;;;;;5066695;28;20036;-77
2023/12/27 08:58:20;;;;;;;0.22;0.22;;;4.60;99.90;;;;;;5065963;28;20040;-77
2023/12/27 09:00:46;;;;;;;0.10;0.10;;;4.70;99.90;;;;;;5068264;28;20032;-78
2023/12/27 09:03:11;;;;;;;0.08;0.08;;;4.60;99.90;;;;;;5065069;28;20040;-77
2023/12/27 09:05:37;;;;;;;0.10;0.10;;;4.70;99.90;;;;;;5050982;28;20052;-76
2023/12/27 09:08:03;;;;;;;0.40;0.20;;;4.80;99.90;;;;;;5062397;28;20043;-76
2023/12/27 09:10:29;;;;;;;0.20;0.20;;;4.80;99.90;;;;;;5062191;28;20049;-78
2023/12/27 09:12:55;;;;;;;1.50;0.47;;;4.80;99.90;;;;;;5064436;28;20049;-75
2023/12/27 09:15:21;;;;;;;2.75;0.65;;;4.90;99.90;;;;;;5069373;28;20044;-78
2023/12/27 09:17:46;;;;;;;0.35;0.30;;;4.90;99.90;;;;;;5071335;28;20040;-78
2023/12/27 09:20:12;;;;;;;0.10;0.10;;;4.90;99.90;;;;;;5069511;28;20139;-76
2023/12/27 09:22:37;;;;;;;2.35;0.20;;;4.90;99.90;;;;;;5068252;28;20053;-77
2023/12/27 09:25:06;;;;;;;0.50;0.50;;;5.00;99.90;;;;;;5071526;28;20041;-77
2023/12/27 09:27:31;;;;;;;1.02;0.85;;;5.00;99.90;;;;;;5065709;28;20086;-77
2023/12/27 09:29:57;;;;;;;1.88;0.43;;;4.90;99.90;;;;;;5092986;28;20706;-77
2023/12/27 09:32:23;;;;;;;0.50;0.50;;;5.00;99.90;;;;;;5067440;28;20068;-78
2023/12/27 09:34:48;;;;;;;0.20;0.20;;;5.00;99.90;;;;;;5049701;28;20036;-76
2023/12/27 09:37:14;;;;;;;0.47;0.47;;;5.00;99.90;;;;;;5070876;28;20082;-77
2023/12/27 09:39:40;;;;;;;0.30;0.30;;;5.10;99.90;;;;;;5073998;28;20029;-75
2023/12/27 09:42:06;;;;;;;0.20;0.20;;;5.10;99.90;;;;;;5058559;28;20033;-76
2023/12/27 09:44:34;;;;;;;0.10;0.10;;;5.10;99.90;;;;;;5057710;28;20043;-74
2023/12/27 09:47:02;;;;;;;1.00;0.38;;;5.10;99.90;;;;;;5057278;28;20044;-73
2023/12/27 09:49:30;;;;;;;0.20;0.20;;;5.10;99.90;;;;;;5054443;28;20040;-71
2023/12/27 09:51:57;;;;;;;0.70;0.38;;;5.20;99.90;;;;;;5052286;28;20044;-72
2023/12/27 09:54:23;;;;;;;0.25;0.25;;;5.20;99.90;;;;;;5053603;28;20041;-71
2023/12/27 09:56:49;;;;;;;0.13;0.13;;;5.20;99.90;;;;;;5052124;28;20098;-71
2023/12/27 09:59:26;;;;;;;1.35;1.02;;;5.20;99.90;;;;;;5052099;28;20045;-71
2023/12/27 10:01:56;;;;;;;0.38;0.38;;;5.30;99.90;;;;;;5052071;28;20068;-70
2023/12/27 10:04:42;;;;;;;0.40;0.40;;;5.30;99.90;;;;;;5052368;28;20513;-69
2023/12/27 10:10:50;;;;;;;0.85;0.50;;;5.30;99.90;;;;;;5064296;28;20070;-70
2023/12/27 10:13:19;;;;;;;2.70;1.33;;;5.30;99.90;;;;;;5077028;28;20040;-70
2023/12/27 10:15:44;;;;;;;0.85;0.85;;;5.40;99.90;;;;;;5067327;28;20440;-69
2023/12/27 10:18:10;;;;;;;0.10;0.10;;;5.30;99.90;;;;;;5070873;28;20135;-70
2023/12/27 10:20:43;;;;;;;2.05;0.65;;;5.40;99.90;;;;;;5063724;28;20037;-70
2023/12/27 10:23:08;;;;;;;;;;;5.40;99.90;;;;;;5070002;28;20518;-70
2023/12/27 10:25:34;;;;;;;1.15;0.75;;;5.40;99.90;;;;;;5070313;28;19964;-71
2023/12/27 10:28:00;;;;;;;0.10;0.10;;;5.40;99.90;;;;;;5088370;27;20116;-69
2023/12/27 10:30:26;;;;;;;0.30;0.30;;;5.50;99.90;;;;;;5072256;28;20460;-72
2023/12/27 10:32:58;;;;;;;0.38;0.38;;;5.50;99.90;;;;;;5071167;28;20033;-70
2023/12/27 10:35:23;;;;;;;1.25;0.75;;;5.50;99.90;;;;;;5067456;28;20454;-72
2023/12/27 10:38:05;;;;;;;1.00;0.60;;;5.50;99.90;;;;;;5066662;28;20082;-72
2023/12/27 10:40:32;;;;;;;1.08;0.73;;;5.60;99.90;;;;;;5056446;28;20075;-72
2023/12/27 10:42:58;;;;;;;0.10;0.10;;;5.60;99.90;;;;;;5072111;28;20029;-71
2023/12/27 10:45:24;;;;;;;0.30;0.25;;;5.70;99.90;;;;;;5048888;28;20036;-71
2023/12/27 10:48:01;;;;;;;0.93;0.73;;;5.70;99.90;;;;;;5063185;28;20185;-72
2023/12/27 10:50:28;;;;;;;1.38;0.93;;;5.70;99.90;;;;;;5070260;28;20041;-72
2023/12/27 10:53:07;;;;;;;0.45;0.35;;;5.70;99.90;;;;;;5067428;28;20085;-73
2023/12/27 10:55:34;;;;;;;0.30;0.30;;;5.70;99.90;;;;;;5088413;28;20044;-73
2023/12/27 10:58:01;;;;;;;3.55;2.65;;;5.80;99.90;;;;;;5081054;28;20070;-73
2023/12/27 11:00:28;;;;;;;1.75;1.65;;;5.80;99.90;;;;;;5074664;28;20032;-73
2023/12/27 11:03:30;;;;;;;7.00;0.55;;;5.80;99.90;;;;;;5074974;28;20041;-73
2023/12/27 11:05:58;;;;;;;0.63;0.63;;;5.80;99.90;;;;;;5074693;28;20094;-73
2023/12/27 11:08:27;;;;;;;3.20;0.45;;;5.90;99.90;;;;;;5075020;28;20045;-72
2023/12/27 11:10:53;;;;;;;2.17;0.57;;;5.90;99.90;;;;;;5077269;28;20035;-72
2023/12/27 11:13:21;;;;;;;1.75;0.57;;;5.90;99.90;;;;;;5066919;28;20049;-73
2023/12/27 11:15:50;;;;;;;1.27;0.88;;;5.90;99.90;;;;;;5088269;28;20037;-73
2023/12/27 11:18:17;;;;;;;1.35;0.73;;;5.90;99.90;;;;;;5068575;28;20041;-73
2023/12/27 11:20:47;;;;;;;0.38;0.38;;;5.90;99.90;;;;;;5071417;28;20093;-73
2023/12/27 11:23:12;;;;;;;0.47;0.47;;;5.90;99.90;;;;;;5095318;28;20479;-72
2023/12/27 11:25:38;;;;;;;0.40;0.40;;;5.90;99.90;;;;;;5054233;28;20094;-70
2023/12/27 11:28:04;;;;;;;3.13;0.60;;;6.00;99.90;;;;;;5070991;28;20093;-72
2023/12/27 11:30:32;;;;;;;0.32;0.32;;;5.90;99.90;;;;;;5067288;28;20032;-73
2023/12/27 11:32:58;;;;;;;1.10;0.80;;;6.00;99.90;;;;;;5080325;28;20037;-72
2023/12/27 11:35:24;;;;;;;0.77;0.32;;;6.00;99.90;;;;;;5074138;28;20032;-70
2023/12/27 11:38:11;;;;;;;0.90;0.90;;;6.00;99.90;;;;;;5064422;28;20037;-73
2023/12/27 11:40:56;;;;;;;0.55;0.30;;;6.00;99.90;;;;;;5051113;28;20041;-72
2023/12/27 11:43:26;;;;;;;0.80;0.30;;;6.10;99.90;;;;;;5066716;28;20044;-73
2023/12/27 11:45:58;;;;;;;0.30;0.20;;;6.10;99.90;;;;;;5071821;28;20543;-71
2023/12/27 11:48:25;;;;;;;0.95;0.75;;;6.10;99.90;;;;;;5070718;28;20044;-73
2023/12/27 11:50:51;;;;;;;0.70;0.70;;;6.10;99.90;;;;;;5055123;28;20041;-73
2023/12/27 11:53:18;;;;;;;0.28;0.28;;;6.10;99.90;;;;;;5069174;28;20040;-71
2023/12/27 11:55:46;;;;;;;0.25;0.20;;;6.10;99.90;;;;;;5072168;28;20043;-72
2023/12/27 11:58:14;;;;;;;0.38;0.28;;;6.20;99.90;;;;;;5072625;28;20040;-73
2023/12/27 12:00:40;;;;;;;0.55;0.52;;;6.20;99.90;;;;;;5058691;28;20483;-72
2023/12/27 12:03:16;;;;;;;3.20;0.68;;;6.20;99.90;;;;;;5070185;28;20044;-71
2023/12/27 12:06:18;;;;;;;0.20;0.20;;;6.20;99.90;;;;;;5075002;28;20372;-71
2023/12/27 12:08:46;;;;;;;5.93;1.02;;;6.30;99.90;;;;;;5074002;28;20041;-72
2023/12/27 12:11:15;;;;;;;0.70;0.30;;;6.30;99.90;;;;;;5076142;28;20386;-72
2023/12/27 12:13:41;;;;;;;2.35;1.05;;;6.30;99.90;;;;;;5067232;28;20063;-73
2023/12/27 12:16:08;;;;;;;0.32;0.30;;;6.40;99.90;;;;;;5044014;28;20072;-73
2023/12/27 12:18:35;;;;;;;0.40;0.40;;;6.40;99.90;;;;;;5069751;28;20037;-72
2023/12/27 12:21:01;;;;;;;0.70;0.47;;;6.40;99.90;;;;;;5067889;28;20090;-71
2023/12/27 12:23:38;;;;;;;2.60;0.63;;;6.50;99.90;;;;;;5071714;28;20040;-71
2023/12/27 12:29:53;;;;;;;1.10;0.40;;;6.60;99.90;;;;;;5076148;28;20035;-71
2023/12/27 12:32:19;;;;;;;0.35;0.25;;;6.60;99.90;;;;;;5093177;28;20040;-72
2023/12/27 12:34:45;;;;;;;0.90;0.63;;;6.70;99.90;;;;;;5072982;28;20068;-70
2023/12/27 12:37:12;;;;;;;1.25;0.22;;;6.70;99.90;;;;;;5073512;28;20044;-71
2023/12/27 12:39:38;;;;;;;9.85;0.98;;;6.70;99.90;;;;;;5073164;28;20163;-72
2023/12/27 12:42:04;;;;;;;1.75;1.50;;;6.70;99.90;;;;;;5072776;28;20040;-70
2023/12/27 12:44:32;;;;;;;1.00;0.50;;;6.70;99.90;;;;;;5072612;28;20386;-71
2023/12/27 12:46:59;;;;;;;1.95;1.65;;;6.70;99.90;;;;;;5072512;28;20044;-70
2023/12/27 12:49:25;;;;;;;1.58;0.80;;;6.70;99.90;;;;;;5072785;28;20098;-72
2023/12/27 12:52:27;;;;;;;0.22;0.22;;;6.70;99.90;;;;;;5072876;28;20040;-72
2023/12/27 12:55:30;;;;;;;0.35;0.30;;;6.80;99.90;;;;;;5071575;28;20036;-71
2023/12/27 12:58:30;;;;;;;0.17;0.17;;;6.80;99.90;;;;;;5053168;28;20048;-72
2023/12/27 13:04:38;;;;;;;0.40;0.20;;;6.90;99.90;;;;;;5054169;28;20409;-72
2023/12/27 13:07:18;;;;;;;0.47;0.35;;;6.90;99.90;;;;;;5052842;28;20045;-72
2023/12/27 13:10:18;;;;;;;4.22;0.52;;;7.00;99.90;;;;;;5063898;28;20036;-72
2023/12/27 13:12:50;;;;;;;4.72;1.15;;;6.90;99.90;;;;;;5055237;28;20067;-70
2023/12/27 13:15:19;;;;;;;0.47;0.20;;;7.00;99.90;;;;;;5064333;28;20736;-69
2023/12/27 13:17:45;;;;;;;1.42;0.63;;;7.10;99.90;;;;;;5077015;28;20040;-71
2023/12/27 13:20:11;;;;;;;0.45;0.45;;;7.10;99.90;;;;;;5055370;28;20045;-69
2023/12/27 13:22:37;;;;;;;0.20;0.20;;;7.10;99.90;;;;;;5054886;28;20114;-70
2023/12/27 13:25:03;;;;;;;0.63;0.50;;;7.20;99.90;;;;;;5064880;28;20037;-69
2023/12/27 13:27:28;;;;;;;0.45;0.45;;;7.20;99.90;;;;;;5061419;28;20045;-69